createdAt,value
2023-09-06T00:00:18.889Z,14.90
2023-09-06T00:02:46.873Z,14.90
2023-09-06T00:05:14.921Z,14.83
2023-09-06T00:07:45.653Z,14.80
2023-09-06T00:10:16.026Z,14.74
2023-09-06T00:12:44.122Z,14.67
2023-09-06T00:15:12.705Z,14.56
2023-09-06T00:17:42.404Z,14.43
2023-09-06T00:20:20.652Z,14.37
2023-09-06T00:22:55.263Z,14.30
2023-09-06T00:25:25.095Z,14.22
2023-09-06T00:27:53.434Z,14.18
2023-09-06T00:30:22.075Z,14.10
2023-09-06T00:32:54.165Z,14.02
2023-09-06T00:35:23.367Z,13.97
2023-09-06T00:37:51.445Z,13.95
2023-09-06T00:40:20.376Z,13.89
2023-09-06T00:42:50.300Z,13.84
2023-09-06T00:45:20.804Z,13.80
2023-09-06T00:47:49.082Z,13.77
2023-09-06T00:50:17.345Z,13.70
2023-09-06T00:52:45.422Z,13.64
2023-09-06T00:55:13.644Z,13.59
2023-09-06T00:57:42.521Z,13.55
2023-09-06T01:00:18.354Z,13.52
2023-09-06T01:02:46.528Z,13.48
2023-09-06T01:05:15.025Z,13.42
2023-09-06T01:07:43.053Z,13.38
2023-09-06T01:10:11.470Z,13.35
2023-09-06T01:12:39.737Z,13.31
2023-09-06T01:15:09.245Z,13.29
2023-09-06T01:17:40.379Z,13.26
2023-09-06T01:20:16.166Z,13.24
2023-09-06T01:22:46.458Z,13.14
2023-09-06T01:25:17.815Z,13.14
2023-09-06T01:27:46.167Z,13.09
2023-09-06T01:30:14.414Z,13.09
2023-09-06T01:32:43.090Z,13.08
2023-09-06T01:35:12.021Z,13.02
2023-09-06T01:37:40.452Z,12.99
2023-09-06T01:40:18.477Z,12.94
2023-09-06T01:42:48.120Z,12.90
2023-09-06T01:45:18.866Z,12.87
2023-09-06T01:47:48.184Z,12.86
2023-09-06T01:50:20.327Z,12.86
2023-09-06T01:52:48.591Z,12.86
2023-09-06T01:55:16.790Z,12.83
2023-09-06T01:57:46.567Z,12.82
2023-09-06T02:00:24.100Z,12.80
2023-09-06T02:02:52.186Z,12.74
2023-09-06T02:05:20.536Z,12.67
2023-09-06T02:07:48.728Z,12.62
2023-09-06T02:10:16.872Z,12.58
2023-09-06T02:12:45.544Z,12.55
2023-09-06T02:15:16.009Z,12.53
2023-09-06T02:17:44.873Z,12.54
2023-09-06T02:20:18.772Z,12.53
2023-09-06T02:22:48.431Z,12.49
2023-09-06T02:25:17.256Z,12.41
2023-09-06T02:27:45.361Z,12.36
2023-09-06T02:30:15.374Z,12.31
2023-09-06T02:32:43.609Z,12.29
2023-09-06T02:35:12.536Z,12.29
2023-09-06T02:37:41.629Z,12.23
2023-09-06T02:40:15.177Z,12.20
2023-09-06T02:42:43.345Z,12.17
2023-09-06T02:45:13.593Z,12.14
2023-09-06T02:47:49.670Z,12.09
2023-09-06T02:50:19.126Z,12.07
2023-09-06T02:52:47.301Z,12.03
2023-09-06T02:55:15.458Z,11.98
2023-09-06T02:57:43.681Z,11.98
2023-09-06T03:00:25.446Z,11.97
2023-09-06T03:02:56.511Z,11.95
2023-09-06T03:05:28.159Z,11.93
2023-09-06T03:07:56.481Z,11.94
2023-09-06T03:10:26.341Z,11.91
2023-09-06T03:12:55.774Z,11.89
2023-09-06T03:15:28.505Z,11.89
2023-09-06T03:18:03.536Z,11.90
2023-09-06T03:20:35.206Z,11.88
2023-09-06T03:23:19.210Z,11.87
2023-09-06T03:25:55.235Z,11.83
2023-09-06T03:28:27.000Z,11.78
2023-09-06T03:30:59.798Z,11.73
2023-09-06T03:33:30.787Z,11.70
2023-09-06T03:35:59.365Z,11.65
2023-09-06T03:38:29.784Z,11.66
2023-09-06T03:41:03.458Z,11.63
2023-09-06T03:43:33.439Z,11.59
2023-09-06T03:46:06.015Z,11.55
2023-09-06T03:48:38.192Z,11.52
2023-09-06T03:51:06.632Z,11.50
2023-09-06T03:53:38.587Z,11.45
2023-09-06T03:56:07.716Z,11.41
2023-09-06T03:58:42.209Z,11.35
2023-09-06T04:01:12.745Z,11.30
2023-09-06T04:03:44.162Z,11.29
2023-09-06T04:06:14.927Z,11.27
2023-09-06T04:08:44.236Z,11.25
2023-09-06T04:11:14.983Z,11.23
2023-09-06T04:13:44.652Z,11.20
2023-09-06T04:16:16.075Z,11.17
2023-09-06T04:18:46.621Z,11.13
2023-09-06T04:21:15.354Z,11.07
2023-09-06T04:23:46.057Z,11.03
2023-09-06T04:26:17.688Z,11.01
2023-09-06T04:28:45.825Z,10.97
2023-09-06T04:31:19.038Z,10.98
2023-09-06T04:33:50.478Z,10.97
2023-09-06T04:36:27.022Z,10.98
2023-09-06T04:39:01.842Z,10.95
2023-09-06T04:41:33.455Z,10.93
2023-09-06T04:44:06.289Z,10.91
2023-09-06T04:46:34.436Z,10.90
2023-09-06T04:49:04.840Z,10.90
2023-09-06T04:51:32.979Z,10.90
2023-09-06T04:54:03.995Z,10.91
2023-09-06T04:56:36.290Z,10.90
2023-09-06T04:59:05.506Z,10.91
2023-09-06T05:01:33.944Z,10.94
2023-09-06T05:04:04.614Z,10.97
2023-09-06T05:06:32.762Z,11.00
2023-09-06T05:09:01.127Z,11.03
2023-09-06T05:11:29.595Z,11.07
2023-09-06T05:13:57.651Z,11.12
2023-09-06T05:16:29.005Z,11.12
2023-09-06T05:18:57.347Z,11.19
2023-09-06T05:21:30.709Z,11.24
2023-09-06T05:23:58.710Z,11.30
2023-09-06T05:26:26.822Z,11.39
2023-09-06T05:28:54.844Z,11.46
2023-09-06T05:31:23.369Z,11.51
2023-09-06T05:33:53.417Z,11.60
2023-09-06T05:36:24.119Z,11.66
2023-09-06T05:38:53.716Z,11.77
2023-09-06T05:41:24.885Z,11.89
2023-09-06T05:43:53.525Z,12.00
2023-09-06T05:46:32.350Z,12.15
2023-09-06T05:49:09.533Z,12.28
2023-09-06T05:51:41.559Z,12.42
2023-09-06T05:54:11.188Z,12.54
2023-09-06T05:56:42.719Z,12.69
2023-09-06T05:59:14.440Z,12.84
2023-09-06T06:01:43.692Z,12.97
2023-09-06T06:04:12.591Z,13.15
2023-09-06T06:06:40.797Z,13.31
2023-09-06T06:09:12.584Z,13.47
2023-09-06T06:11:42.364Z,13.63
2023-09-06T06:14:11.408Z,13.80
2023-09-06T06:16:40.071Z,13.96
2023-09-06T06:19:08.389Z,14.13
2023-09-06T06:21:36.433Z,14.33
2023-09-06T06:24:04.865Z,14.52
2023-09-06T06:26:33.264Z,14.69
2023-09-06T06:29:03.352Z,14.92
2023-09-06T06:31:31.714Z,15.13
2023-09-06T06:34:00.570Z,15.33
2023-09-06T06:36:28.634Z,15.51
2023-09-06T06:38:57.752Z,15.69
2023-09-06T06:41:26.924Z,15.89
2023-09-06T06:43:55.261Z,16.11
2023-09-06T06:46:28.412Z,16.30
2023-09-06T06:48:57.793Z,16.49
2023-09-06T06:51:27.096Z,16.72
2023-09-06T06:53:55.556Z,16.90
2023-09-06T06:56:23.706Z,17.12
2023-09-06T06:58:51.855Z,17.31
2023-09-06T07:01:21.035Z,17.43
2023-09-06T07:03:50.619Z,17.58
2023-09-06T07:06:19.098Z,17.73
2023-09-06T07:08:47.820Z,17.91
2023-09-06T07:11:17.356Z,18.07
2023-09-06T07:13:47.728Z,18.24
2023-09-06T07:16:16.312Z,18.39
2023-09-06T07:18:44.794Z,18.51
2023-09-06T07:21:14.337Z,18.72
2023-09-06T07:23:42.519Z,18.85
2023-09-06T07:26:10.793Z,18.94
2023-09-06T07:28:40.307Z,19.09
2023-09-06T07:31:08.403Z,19.21
2023-09-06T07:33:36.555Z,19.33
2023-09-06T07:36:05.310Z,19.37
2023-09-06T07:38:35.071Z,19.47
2023-09-06T07:41:04.660Z,19.55
2023-09-06T07:43:32.744Z,19.75
2023-09-06T07:46:02.112Z,19.91
2023-09-06T07:48:31.739Z,20.02
2023-09-06T07:51:00.626Z,20.12
2023-09-06T07:53:28.752Z,20.26
2023-09-06T07:55:58.191Z,20.36
2023-09-06T07:58:27.186Z,20.49
2023-09-06T08:01:15.205Z,20.58
2023-09-06T08:03:47.665Z,20.68
2023-09-06T08:06:16.656Z,20.77
2023-09-06T08:08:45.529Z,20.86
2023-09-06T08:11:15.000Z,20.91
2023-09-06T08:13:43.627Z,21.06
2023-09-06T08:16:13.193Z,21.17
2023-09-06T08:18:41.828Z,21.20
2023-09-06T08:21:10.125Z,21.30
2023-09-06T08:23:38.244Z,21.41
2023-09-06T08:26:06.280Z,21.50
2023-09-06T08:28:36.762Z,21.45
2023-09-06T08:31:05.647Z,21.48
2023-09-06T08:33:33.870Z,21.50
2023-09-06T08:36:02.054Z,21.45
2023-09-06T08:38:30.449Z,21.52
2023-09-06T08:40:58.783Z,21.56
2023-09-06T08:43:27.464Z,21.53
2023-09-06T08:45:59.039Z,21.56
2023-09-06T08:48:27.625Z,21.59
2023-09-06T08:50:56.622Z,21.61
2023-09-06T08:53:24.792Z,21.69
2023-09-06T08:55:53.132Z,21.78
2023-09-06T08:58:21.149Z,21.84
2023-09-06T09:00:49.232Z,21.98
2023-09-06T09:03:18.805Z,22.19
2023-09-06T09:05:46.898Z,22.35
2023-09-06T09:08:14.895Z,22.59
2023-09-06T09:10:43.647Z,22.72
2023-09-06T09:13:13.146Z,22.92
2023-09-06T09:15:41.212Z,23.07
2023-09-06T09:18:12.779Z,23.35
2023-09-06T09:20:42.613Z,23.65
2023-09-06T09:23:13.613Z,23.96
2023-09-06T09:25:48.229Z,24.23
2023-09-06T09:28:16.606Z,24.44
2023-09-06T09:30:44.679Z,24.92
2023-09-06T09:33:12.780Z,25.18
2023-09-06T09:35:42.691Z,25.30
2023-09-06T09:38:12.030Z,25.55
2023-09-06T09:43:11.036Z,25.82
2023-09-06T09:45:41.729Z,26.23
2023-09-06T09:48:09.895Z,26.51
2023-09-06T09:50:39.695Z,26.81
2023-09-06T09:55:43.560Z,27.35
2023-09-06T09:58:12.306Z,27.52
2023-09-06T10:00:42.776Z,27.59
2023-09-06T10:03:12.076Z,27.45
2023-09-06T10:05:40.445Z,27.77
2023-09-06T10:08:11.468Z,27.93
2023-09-06T10:10:40.510Z,28.18
2023-09-06T10:13:09.320Z,28.25
2023-09-06T10:15:38.191Z,28.53
2023-09-06T10:18:08.207Z,28.72
2023-09-06T10:20:36.875Z,28.67
2023-09-06T10:23:07.129Z,28.89
2023-09-06T10:25:41.750Z,29.06
2023-09-06T10:28:10.084Z,29.30
2023-09-06T10:30:45.361Z,29.35
2023-09-06T10:33:23.176Z,29.36
2023-09-06T10:35:52.011Z,29.67
2023-09-06T10:38:20.062Z,29.95
2023-09-06T10:41:13.414Z,29.71
2023-09-06T10:44:04.494Z,29.55
2023-09-06T10:46:32.877Z,28.97
2023-09-06T10:49:22.390Z,29.36
2023-09-06T10:51:58.579Z,29.34
2023-09-06T10:54:26.698Z,29.57
2023-09-06T10:57:00.992Z,29.78
2023-09-06T10:59:30.026Z,30.06
2023-09-06T11:02:09.247Z,30.18
2023-09-06T11:04:37.678Z,30.18
2023-09-06T11:07:11.083Z,29.87
2023-09-06T11:09:45.476Z,29.76
2023-09-06T11:12:15.406Z,29.90
2023-09-06T11:14:44.980Z,29.99
2023-09-06T11:17:21.869Z,30.11
2023-09-06T11:19:50.054Z,30.10
2023-09-06T11:22:18.544Z,30.17
2023-09-06T11:24:47.207Z,29.85
2023-09-06T11:27:21.069Z,29.46
2023-09-06T11:29:50.635Z,29.63
2023-09-06T11:32:19.247Z,29.62
2023-09-06T11:34:47.351Z,29.69
2023-09-06T11:37:16.890Z,29.91
2023-09-06T11:39:45.407Z,30.32
2023-09-06T11:42:15.683Z,30.24
2023-09-06T11:44:49.116Z,29.84
2023-09-06T11:47:20.979Z,29.43
2023-09-06T11:49:50.582Z,29.54
2023-09-06T11:52:20.610Z,29.82
2023-09-06T11:54:51.289Z,29.66
2023-09-06T11:57:25.017Z,29.65
2023-09-06T11:59:58.669Z,29.37
2023-09-06T12:02:28.897Z,29.11
2023-09-06T12:05:02.463Z,28.88
2023-09-06T12:07:30.891Z,28.96
2023-09-06T12:09:59.189Z,29.05
2023-09-06T12:12:27.660Z,28.78
2023-09-06T12:14:58.580Z,28.21
2023-09-06T12:17:27.881Z,28.08
2023-09-06T12:20:00.423Z,27.88
2023-09-06T12:22:28.555Z,27.37
2023-09-06T12:24:57.051Z,27.45
2023-09-06T12:27:26.513Z,27.52
2023-09-06T12:29:54.924Z,27.30
2023-09-06T12:32:25.277Z,27.40
2023-09-06T12:34:53.914Z,27.42
2023-09-06T12:37:22.069Z,27.56
2023-09-06T12:39:50.129Z,27.58
2023-09-06T12:42:18.782Z,27.24
2023-09-06T12:44:46.881Z,27.18
2023-09-06T12:47:17.627Z,27.06
2023-09-06T12:49:47.634Z,27.08
2023-09-06T12:52:21.306Z,27.10
2023-09-06T12:54:49.931Z,26.86
2023-09-06T12:57:18.649Z,26.64
2023-09-06T12:59:46.745Z,26.61
2023-09-06T13:02:15.242Z,26.50
2023-09-06T13:04:43.564Z,26.48
2023-09-06T13:07:13.358Z,26.46
2023-09-06T13:09:41.494Z,26.44
2023-09-06T13:12:10.009Z,26.32
2023-09-06T13:14:38.444Z,26.34
2023-09-06T13:17:06.956Z,26.35
2023-09-06T13:19:35.066Z,26.22
2023-09-06T13:22:04.908Z,26.08
2023-09-06T13:24:35.044Z,26.08
2023-09-06T13:27:07.012Z,26.15
2023-09-06T13:29:36.390Z,26.12
2023-09-06T13:32:05.332Z,26.13
2023-09-06T13:34:33.575Z,26.10
2023-09-06T13:37:02.439Z,26.03
2023-09-06T13:39:30.550Z,25.98
2023-09-06T13:42:02.064Z,25.97
2023-09-06T13:44:34.525Z,25.95
2023-09-06T13:47:02.577Z,25.92
2023-09-06T13:49:30.615Z,25.88
2023-09-06T13:51:58.682Z,25.89
2023-09-06T13:54:26.944Z,25.88
2023-09-06T13:56:55.455Z,25.88
2023-09-06T13:59:25.005Z,25.89
2023-09-06T14:01:53.325Z,25.86
2023-09-06T14:04:21.531Z,25.88
2023-09-06T14:06:50.414Z,25.86
2023-09-06T14:09:18.814Z,25.89
2023-09-06T14:11:46.810Z,25.96
2023-09-06T14:14:14.925Z,25.99
2023-09-06T14:16:44.552Z,25.98
2023-09-06T14:19:12.743Z,25.98
2023-09-06T14:21:46.710Z,26.02
2023-09-06T14:24:16.278Z,26.06
2023-09-06T14:26:45.284Z,25.98
2023-09-06T14:29:14.308Z,25.97
2023-09-06T14:31:42.607Z,26.04
2023-09-06T14:34:12.198Z,26.11
2023-09-06T14:36:40.301Z,26.15
2023-09-06T14:39:09.612Z,26.17
2023-09-06T14:41:37.909Z,26.16
2023-09-06T14:44:06.685Z,26.14
2023-09-06T14:46:36.093Z,26.22
2023-09-06T14:49:07.020Z,26.22
2023-09-06T14:51:36.464Z,26.29
2023-09-06T14:54:04.761Z,26.37
2023-09-06T14:56:36.502Z,26.43
2023-09-06T14:59:06.173Z,26.46
2023-09-06T15:01:34.765Z,26.44
2023-09-06T15:04:03.670Z,26.49
2023-09-06T15:06:47.208Z,26.52
2023-09-06T15:09:21.364Z,26.54
2023-09-06T15:11:49.492Z,26.51
2023-09-06T15:14:17.566Z,26.48
2023-09-06T15:16:46.896Z,26.48
2023-09-06T15:19:15.049Z,26.47
2023-09-06T15:21:44.342Z,26.42
2023-09-06T15:24:12.680Z,26.34
2023-09-06T15:26:42.140Z,26.23
2023-09-06T15:29:10.766Z,26.19
2023-09-06T15:31:38.839Z,26.10
2023-09-06T15:34:06.952Z,26.00
2023-09-06T15:36:35.201Z,25.85
2023-09-06T15:39:03.398Z,25.76
2023-09-06T15:41:33.638Z,25.71
2023-09-06T15:44:06.038Z,25.66
2023-09-06T15:46:34.730Z,25.55
2023-09-06T15:49:02.847Z,25.39
2023-09-06T15:51:31.099Z,25.22
2023-09-06T15:53:59.336Z,25.12
2023-09-06T15:56:27.539Z,25.05
2023-09-06T15:58:56.318Z,25.01
2023-09-06T16:01:28.004Z,24.89
2023-09-06T16:03:58.202Z,24.86
2023-09-06T16:06:27.123Z,24.84
2023-09-06T16:08:55.426Z,24.79
2023-09-06T16:11:24.025Z,24.75
2023-09-06T16:13:52.136Z,24.69
2023-09-06T16:16:20.246Z,24.67
2023-09-06T16:18:51.693Z,24.65
2023-09-06T16:21:19.779Z,24.63
2023-09-06T16:23:47.863Z,24.53
2023-09-06T16:26:16.406Z,24.34
2023-09-06T16:28:44.488Z,24.15
2023-09-06T16:31:12.556Z,24.00
2023-09-06T16:33:40.768Z,23.92
2023-09-06T16:36:10.517Z,23.79
2023-09-06T16:38:39.044Z,23.66
2023-09-06T16:41:07.142Z,23.59
2023-09-06T16:43:35.185Z,23.50
2023-09-06T16:46:03.533Z,23.44
2023-09-06T16:48:31.963Z,23.32
2023-09-06T16:51:00.273Z,23.12
2023-09-06T16:53:30.082Z,22.88
2023-09-06T16:55:58.165Z,22.65
2023-09-06T16:58:26.241Z,22.56
2023-09-06T17:00:54.363Z,22.36
2023-09-06T17:03:22.585Z,22.16
2023-09-06T17:05:51.049Z,21.97
2023-09-06T17:10:49.432Z,21.63
2023-09-06T17:13:17.695Z,21.43
2023-09-06T17:15:45.860Z,21.26
2023-09-06T17:18:14.661Z,21.12
2023-09-06T17:20:43.208Z,20.98
2023-09-06T17:23:12.132Z,20.85
2023-09-06T17:25:41.077Z,20.72
2023-09-06T17:28:12.118Z,20.62
2023-09-06T17:30:40.279Z,20.50
2023-09-06T17:33:14.517Z,20.37
2023-09-06T17:35:43.305Z,20.24
2023-09-06T17:38:13.224Z,20.12
2023-09-06T17:40:42.134Z,20.03
2023-09-06T17:43:12.177Z,19.95
2023-09-06T17:45:40.236Z,19.86
2023-09-06T17:48:12.191Z,19.76
2023-09-06T17:50:42.428Z,19.64
2023-09-06T17:53:14.068Z,19.49
2023-09-06T17:55:42.392Z,19.36
2023-09-06T17:58:12.027Z,19.25
2023-09-06T18:00:40.943Z,19.12
2023-09-06T18:03:09.715Z,19.02
2023-09-06T18:05:40.038Z,18.93
2023-09-06T18:08:12.525Z,18.81
2023-09-06T18:10:42.957Z,18.70
2023-09-06T18:13:14.713Z,18.57
2023-09-06T18:15:43.140Z,18.47
2023-09-06T18:18:14.285Z,18.39
2023-09-06T18:20:42.702Z,18.29
2023-09-06T18:23:11.128Z,18.23
2023-09-06T18:25:44.132Z,18.16
2023-09-06T18:28:14.958Z,18.12
2023-09-06T18:30:45.860Z,18.05
2023-09-06T18:33:15.048Z,17.94
2023-09-06T18:35:46.310Z,17.92
2023-09-06T18:38:15.494Z,17.88
2023-09-06T18:40:44.003Z,17.81
2023-09-06T18:43:13.974Z,17.76
2023-09-06T18:45:42.296Z,17.71
2023-09-06T18:48:14.868Z,17.70
2023-09-06T18:50:43.990Z,17.61
2023-09-06T18:53:12.445Z,17.50
2023-09-06T18:55:44.168Z,17.42
2023-09-06T18:58:12.751Z,17.35
2023-09-06T19:00:42.438Z,17.30
2023-09-06T19:03:14.181Z,17.23
2023-09-06T19:05:43.187Z,17.13
2023-09-06T19:08:13.285Z,17.03
2023-09-06T19:10:42.333Z,16.91
2023-09-06T19:13:10.588Z,16.86
2023-09-06T19:15:39.660Z,16.82
2023-09-06T19:18:09.292Z,16.76
2023-09-06T19:20:41.099Z,16.69
2023-09-06T19:23:11.731Z,16.60
2023-09-06T19:25:43.386Z,16.53
2023-09-06T19:28:12.331Z,16.41
2023-09-06T19:30:40.446Z,16.37
2023-09-06T19:33:10.093Z,16.34
2023-09-06T19:35:38.796Z,16.27
2023-09-06T19:38:07.089Z,16.19
2023-09-06T19:40:35.527Z,16.13
2023-09-06T19:43:03.636Z,16.10
2023-09-06T19:45:31.740Z,16.10
2023-09-06T19:47:59.991Z,16.12
2023-09-06T19:50:31.201Z,16.09
2023-09-06T19:52:59.721Z,16.03
2023-09-06T19:55:27.757Z,15.98
2023-09-06T19:57:56.035Z,15.97
2023-09-06T20:00:24.124Z,15.87
2023-09-06T20:02:53.202Z,15.81
2023-09-06T20:05:21.948Z,15.75
2023-09-06T20:07:51.492Z,15.75
2023-09-06T20:10:19.531Z,15.69
2023-09-06T20:12:47.578Z,15.67
2023-09-06T20:15:16.410Z,15.63
2023-09-06T20:17:45.133Z,15.58
2023-09-06T20:20:13.574Z,15.53
2023-09-06T20:22:41.665Z,15.50
2023-09-06T20:25:11.394Z,15.44
2023-09-06T20:27:39.517Z,15.41
2023-09-06T20:30:09.153Z,15.37
2023-09-06T20:32:37.667Z,15.32
2023-09-06T20:35:06.251Z,15.28
2023-09-06T20:37:34.374Z,15.27
2023-09-06T20:40:02.404Z,15.22
2023-09-06T20:42:32.110Z,15.20
2023-09-06T20:45:00.294Z,15.19
2023-09-06T20:47:28.937Z,15.16
2023-09-06T20:49:57.216Z,15.12
2023-09-06T20:52:25.367Z,15.10
2023-09-06T20:54:53.786Z,15.09
2023-09-06T20:57:22.051Z,15.08
2023-09-06T20:59:51.966Z,15.06
2023-09-06T21:02:20.352Z,15.05
2023-09-06T21:04:48.500Z,15.04
2023-09-06T21:07:16.729Z,15.02
2023-09-06T21:09:44.916Z,14.97
2023-09-06T21:12:13.451Z,14.90
2023-09-06T21:14:41.894Z,14.90
2023-09-06T21:17:11.314Z,14.92
2023-09-06T21:19:39.372Z,14.86
2023-09-06T21:22:07.412Z,14.86
2023-09-06T21:24:35.448Z,14.81
2023-09-06T21:27:03.698Z,14.78
2023-09-06T21:29:32.118Z,14.78
2023-09-06T21:32:00.137Z,14.75
2023-09-06T21:34:29.732Z,14.73
2023-09-06T21:36:57.949Z,14.70
2023-09-06T21:39:26.183Z,14.62
2023-09-06T21:41:54.781Z,14.59
2023-09-06T21:44:22.880Z,14.53
2023-09-06T21:46:50.997Z,14.46
2023-09-06T21:49:19.127Z,14.38
2023-09-06T21:51:48.531Z,14.34
2023-09-06T21:54:16.906Z,14.29
2023-09-06T21:56:45.263Z,14.26
2023-09-06T21:59:15.989Z,14.20
2023-09-06T22:01:44.366Z,14.15
2023-09-06T22:04:31.736Z,14.10
2023-09-06T22:07:19.886Z,14.04
2023-09-06T22:10:07.800Z,13.98
2023-09-06T22:12:54.230Z,13.96
2023-09-06T22:15:22.471Z,13.92
2023-09-06T22:17:50.594Z,13.88
2023-09-06T22:20:20.284Z,13.87
2023-09-06T22:22:50.228Z,13.85
2023-09-06T22:25:18.408Z,13.82
2023-09-06T22:27:46.452Z,13.75
2023-09-06T22:30:14.954Z,13.71
2023-09-06T22:32:43.017Z,13.72
2023-09-06T22:35:11.589Z,13.65
2023-09-06T22:37:40.676Z,13.61
2023-09-06T22:40:11.579Z,13.57
2023-09-06T22:42:40.069Z,13.56
2023-09-06T22:45:09.411Z,13.52
2023-09-06T22:47:37.494Z,13.51
2023-09-06T22:50:08.200Z,13.47
2023-09-06T22:52:36.274Z,13.43
2023-09-06T22:55:04.551Z,13.41
2023-09-06T22:57:34.053Z,13.35
2023-09-06T23:00:02.155Z,13.30
2023-09-06T23:02:30.647Z,13.25
2023-09-06T23:04:58.701Z,13.23
2023-09-06T23:07:29.147Z,13.19
2023-09-06T23:09:57.815Z,13.15
2023-09-06T23:12:28.382Z,13.14
2023-09-06T23:14:58.019Z,13.10
2023-09-06T23:17:32.612Z,13.06
2023-09-06T23:20:10.882Z,13.07
2023-09-06T23:22:42.726Z,13.06
2023-09-06T23:25:15.186Z,13.05
2023-09-06T23:27:43.915Z,13.06
2023-09-06T23:30:18.167Z,13.02
2023-09-06T23:32:48.585Z,13.00
2023-09-06T23:35:17.145Z,12.97
2023-09-06T23:37:45.986Z,12.93
2023-09-06T23:40:21.655Z,12.90
2023-09-06T23:42:50.609Z,12.86
2023-09-06T23:45:22.136Z,12.85
2023-09-06T23:47:53.868Z,12.83
2023-09-06T23:50:21.944Z,12.81
2023-09-06T23:52:53.879Z,12.77
2023-09-06T23:55:22.692Z,12.74
2023-09-06T23:57:50.829Z,12.75
